Terminal Aerodrome Forecast
Issued by NWS

Home | Current Version | Previous Version | Text Only | Print | Product List | Glossary On
Versions: 1 2 3 4 5 6 7 8 9 10 11 12 13 14 15 16 17 18 19 20
000
FTUS45 KCYS 241720
TAFAIA
TAF
KAIA 241720Z 2418/2518 36010KT 5SM -SN BKN030
     FM242200 VRB05KT P6SM BKN050
     FM250300 29005KT P6SM BKN080
     FM251700 27012KT P6SM SCT080=

USA.gov is the U.S. government's official web portal to all federal, state and local government web resources and services.